createdAt,value
2022-08-04T00:00:59.622Z,23.31
2022-08-04T00:01:59.687Z,23.33
2022-08-04T00:02:59.663Z,23.36
2022-08-04T00:03:59.580Z,23.31
2022-08-04T00:04:59.566Z,23.22
2022-08-04T00:05:59.613Z,23.31
2022-08-04T00:06:59.562Z,23.21
2022-08-04T00:07:59.544Z,23.20
2022-08-04T00:08:59.529Z,23.31
2022-08-04T00:09:59.613Z,23.31
2022-08-04T00:10:59.499Z,23.22
2022-08-04T00:11:59.510Z,23.28
2022-08-04T00:12:59.509Z,23.22
2022-08-04T00:14:02.913Z,23.33
2022-08-04T00:14:59.459Z,23.18
2022-08-04T00:15:59.444Z,23.22
2022-08-04T00:16:59.508Z,23.27
2022-08-04T00:17:59.420Z,23.24
2022-08-04T00:18:59.410Z,23.25
2022-08-04T00:19:59.403Z,23.28
2022-08-04T00:20:59.414Z,23.34
2022-08-04T00:21:59.400Z,23.33
2022-08-04T00:22:59.363Z,23.31
2022-08-04T00:24:12.081Z,23.21
2022-08-04T00:25:00.391Z,23.31
2022-08-04T00:25:59.336Z,23.21
2022-08-04T00:26:59.343Z,23.28
2022-08-04T00:27:59.319Z,23.25
2022-08-04T00:28:59.332Z,23.24
2022-08-04T00:29:59.302Z,23.28
2022-08-04T00:30:59.301Z,23.27
2022-08-04T00:31:59.292Z,23.27
2022-08-04T00:32:59.279Z,23.27
2022-08-04T00:33:59.251Z,23.25
2022-08-04T00:34:59.305Z,23.25
2022-08-04T00:35:59.216Z,23.15
2022-08-04T00:36:59.273Z,23.17
2022-08-04T00:37:59.197Z,23.21
2022-08-04T00:38:59.245Z,23.21
2022-08-04T00:39:59.178Z,23.14
2022-08-04T00:40:59.260Z,23.17
2022-08-04T00:41:59.161Z,23.15
2022-08-04T00:42:59.677Z,23.18
2022-08-04T00:43:59.136Z,23.07
2022-08-04T00:44:59.127Z,23.09
2022-08-04T00:46:09.509Z,23.14
2022-08-04T00:47:00.166Z,23.14
2022-08-04T00:47:59.103Z,23.14
2022-08-04T00:48:59.073Z,23.15
2022-08-04T00:49:59.066Z,23.14
2022-08-04T00:50:59.078Z,23.15
2022-08-04T00:52:30.771Z,23.13
2022-08-04T00:53:00.052Z,23.21
2022-08-04T00:53:59.032Z,23.15
2022-08-04T00:54:59.047Z,23.15
2022-08-04T00:55:59.098Z,23.10
2022-08-04T00:56:59.003Z,23.17
2022-08-04T00:57:58.982Z,23.09
2022-08-04T00:58:59.090Z,23.02
2022-08-04T00:59:58.949Z,23.07
2022-08-04T01:00:59.026Z,23.07
2022-08-04T01:01:58.935Z,23.05
2022-08-04T01:02:58.923Z,23.06
2022-08-04T01:03:58.907Z,23.05
2022-08-04T01:04:58.928Z,23.05
2022-08-04T01:05:58.891Z,23.03
2022-08-04T01:06:58.874Z,23.03
2022-08-04T01:07:58.931Z,23.03
2022-08-04T01:08:58.852Z,23.02
2022-08-04T01:09:58.871Z,23.05
2022-08-04T01:10:58.826Z,23.03
2022-08-04T01:11:58.822Z,22.98
2022-08-04T01:12:58.809Z,22.96
2022-08-04T01:13:58.796Z,22.98
2022-08-04T01:14:58.780Z,22.96
2022-08-04T01:16:00.624Z,22.91
2022-08-04T01:16:58.757Z,22.93
2022-08-04T01:17:58.750Z,22.95
2022-08-04T01:18:58.735Z,22.98
2022-08-04T01:19:58.725Z,22.95
2022-08-04T01:20:58.723Z,22.93
2022-08-04T01:21:58.798Z,22.93
2022-08-04T01:22:58.695Z,22.87
2022-08-04T01:23:58.683Z,22.83
2022-08-04T01:24:58.674Z,22.80
2022-08-04T01:25:58.674Z,22.88
2022-08-04T01:26:58.776Z,22.84
2022-08-04T01:27:58.639Z,22.87
2022-08-04T01:28:58.678Z,22.87
2022-08-04T01:29:58.614Z,22.77
2022-08-04T01:30:58.600Z,22.75
2022-08-04T01:31:58.634Z,22.81
2022-08-04T01:32:58.618Z,22.75
2022-08-04T01:34:03.717Z,22.77
2022-08-04T01:34:59.561Z,22.73
2022-08-04T01:35:58.638Z,22.78
2022-08-04T01:36:58.580Z,22.70
2022-08-04T01:37:58.550Z,22.72
2022-08-04T01:38:58.549Z,22.70
2022-08-04T01:39:58.491Z,22.72
2022-08-04T01:40:58.549Z,22.72
2022-08-04T01:41:58.811Z,22.68
2022-08-04T01:42:58.481Z,22.69
2022-08-04T01:43:58.527Z,22.70
2022-08-04T01:44:58.462Z,22.69
2022-08-04T01:45:58.429Z,22.54
2022-08-04T01:46:58.423Z,22.66
2022-08-04T01:47:58.427Z,22.69
2022-08-04T01:48:58.401Z,22.59
2022-08-04T01:49:58.381Z,22.59
2022-08-04T01:50:58.455Z,22.63
2022-08-04T01:51:58.363Z,22.59
2022-08-04T01:52:58.362Z,22.58
2022-08-04T01:53:58.346Z,22.60
2022-08-04T01:54:58.331Z,22.56
2022-08-04T01:55:58.311Z,22.58
2022-08-04T01:56:58.316Z,22.54
2022-08-04T01:57:58.311Z,22.58
2022-08-04T01:58:58.283Z,22.51
2022-08-04T01:59:58.275Z,22.51
2022-08-04T02:00:58.370Z,22.51
2022-08-04T02:01:58.419Z,22.53
2022-08-04T02:02:58.263Z,22.51
2022-08-04T02:04:18.242Z,22.45
2022-08-04T02:04:59.271Z,22.41
2022-08-04T02:06:03.058Z,22.41
2022-08-04T02:06:59.193Z,22.44
2022-08-04T02:07:58.171Z,22.45
2022-08-04T02:08:58.179Z,22.41
2022-08-04T02:09:58.155Z,22.44
2022-08-04T02:10:58.138Z,22.32
2022-08-04T02:11:58.208Z,22.35
2022-08-04T02:12:58.124Z,22.30
2022-08-04T02:13:58.129Z,22.41
2022-08-04T02:14:58.105Z,22.29
2022-08-04T02:15:58.089Z,22.28
2022-08-04T02:16:58.072Z,22.29
2022-08-04T02:17:58.063Z,22.23
2022-08-04T02:18:58.085Z,22.25
2022-08-04T02:19:58.037Z,22.26
2022-08-04T02:20:58.105Z,22.28
2022-08-04T02:21:58.022Z,22.28
2022-08-04T02:22:58.008Z,22.20
2022-08-04T02:23:58.011Z,22.19
2022-08-04T02:24:57.991Z,22.17
2022-08-04T02:25:57.981Z,22.17
2022-08-04T02:26:57.979Z,22.13
2022-08-04T02:27:59.704Z,22.19
2022-08-04T02:28:58.052Z,22.19
2022-08-04T02:29:57.926Z,22.17
2022-08-04T02:30:57.913Z,22.19
2022-08-04T02:31:57.925Z,22.13
2022-08-04T02:32:57.895Z,22.14
2022-08-04T02:33:57.898Z,22.14
2022-08-04T02:34:57.875Z,22.08
2022-08-04T02:35:57.855Z,22.05
2022-08-04T02:36:57.852Z,22.19
2022-08-04T02:37:57.875Z,22.10
2022-08-04T02:38:57.945Z,22.01
2022-08-04T02:39:57.813Z,22.11
2022-08-04T02:40:58.864Z,22.13
2022-08-04T02:41:57.795Z,22.01
2022-08-04T02:42:57.775Z,22.11
2022-08-04T02:43:57.816Z,22.08
2022-08-04T02:44:57.821Z,21.98
2022-08-04T02:45:57.767Z,22.13
2022-08-04T02:46:57.750Z,22.07
2022-08-04T02:48:29.567Z,22.10
2022-08-04T02:48:58.750Z,22.11
2022-08-04T02:49:57.699Z,22.04
2022-08-04T02:50:57.697Z,22.05
2022-08-04T02:51:57.697Z,22.03
2022-08-04T02:52:57.663Z,22.01
2022-08-04T02:53:57.661Z,22.05
2022-08-04T02:54:57.657Z,21.98
2022-08-04T02:55:57.634Z,21.90
2022-08-04T02:56:57.612Z,21.95
2022-08-04T02:57:57.623Z,21.88
2022-08-04T02:58:57.629Z,21.88
2022-08-04T02:59:57.584Z,22.04
2022-08-04T03:00:57.665Z,21.98
2022-08-04T03:01:58.405Z,21.95
2022-08-04T03:02:57.571Z,21.92
2022-08-04T03:03:57.558Z,21.95
2022-08-04T03:04:57.523Z,21.92
2022-08-04T03:06:00.647Z,21.77
2022-08-04T03:06:57.505Z,21.82
2022-08-04T03:07:57.528Z,21.93
2022-08-04T03:08:57.490Z,21.81
2022-08-04T03:09:57.472Z,21.92
2022-08-04T03:10:57.455Z,21.79
2022-08-04T03:11:57.538Z,21.81
2022-08-04T03:12:58.680Z,21.82
2022-08-04T03:13:57.431Z,21.77
2022-08-04T03:14:57.419Z,21.77
2022-08-04T03:15:57.399Z,21.79
2022-08-04T03:16:57.409Z,21.77
2022-08-04T03:17:57.398Z,21.70
2022-08-04T03:18:57.422Z,21.81
2022-08-04T03:19:57.366Z,21.66
2022-08-04T03:20:57.367Z,21.65
2022-08-04T03:21:57.344Z,21.67
2022-08-04T03:23:12.581Z,21.63
2022-08-04T03:23:58.313Z,21.58
2022-08-04T03:24:57.295Z,21.63
2022-08-04T03:25:57.785Z,21.61
2022-08-04T03:26:57.273Z,21.65
2022-08-04T03:27:57.278Z,21.63
2022-08-04T03:28:57.253Z,21.59
2022-08-04T03:29:57.239Z,21.54
2022-08-04T03:30:57.232Z,21.55
2022-08-04T03:31:57.272Z,21.57
2022-08-04T03:32:57.221Z,21.59
2022-08-04T03:33:57.200Z,21.57
2022-08-04T03:34:57.188Z,21.59
2022-08-04T03:35:57.183Z,21.58
2022-08-04T03:36:57.171Z,21.54
2022-08-04T03:37:57.259Z,21.61
2022-08-04T03:38:57.584Z,21.58
2022-08-04T03:39:57.140Z,21.54
2022-08-04T03:40:57.121Z,21.54
2022-08-04T03:42:04.206Z,21.42
2022-08-04T03:42:58.114Z,21.45
2022-08-04T03:43:59.747Z,21.43
2022-08-04T03:44:57.093Z,21.55
2022-08-04T03:45:57.073Z,21.48
2022-08-04T03:46:57.048Z,21.48
2022-08-04T03:47:57.049Z,21.51
2022-08-04T03:48:57.035Z,21.50
2022-08-04T03:49:57.016Z,21.50
2022-08-04T03:50:57.015Z,21.50
2022-08-04T03:51:56.994Z,21.48
2022-08-04T03:52:56.993Z,21.39
2022-08-04T03:53:57.035Z,21.50
2022-08-04T03:54:56.957Z,21.55
2022-08-04T03:55:56.949Z,21.47
2022-08-04T03:56:56.940Z,21.48
2022-08-04T03:57:56.934Z,21.50
2022-08-04T03:58:56.910Z,21.52
2022-08-04T03:59:56.954Z,21.55
2022-08-04T04:00:56.891Z,21.54
2022-08-04T04:02:02.700Z,21.59
2022-08-04T04:02:57.953Z,21.69
2022-08-04T04:03:56.864Z,21.67
2022-08-04T04:04:56.843Z,21.66
2022-08-04T04:05:59.997Z,21.72
2022-08-04T04:06:57.831Z,21.82
2022-08-04T04:08:01.318Z,21.77
2022-08-04T04:08:56.810Z,21.82
2022-08-04T04:10:01.221Z,21.85
2022-08-04T04:10:57.776Z,21.98
2022-08-04T04:11:57.813Z,21.88
2022-08-04T04:12:56.781Z,21.90
2022-08-04T04:13:56.763Z,21.95
2022-08-04T04:14:56.731Z,21.93
2022-08-04T04:15:56.737Z,21.92
2022-08-04T04:16:56.714Z,21.90
2022-08-04T04:17:56.696Z,21.82
2022-08-04T04:18:56.706Z,21.79
2022-08-04T04:19:58.297Z,21.84
2022-08-04T04:20:56.731Z,21.84
2022-08-04T04:21:56.660Z,21.84
2022-08-04T04:22:56.647Z,21.74
2022-08-04T04:23:56.648Z,21.81
2022-08-04T04:24:56.624Z,21.82
2022-08-04T04:25:56.697Z,21.81
2022-08-04T04:26:56.593Z,21.84
2022-08-04T04:27:56.585Z,21.89
2022-08-04T04:29:01.575Z,21.81
2022-08-04T04:29:57.562Z,21.88
2022-08-04T04:30:56.546Z,21.90
2022-08-04T04:31:56.546Z,21.88
2022-08-04T04:32:56.526Z,21.88
2022-08-04T04:33:56.636Z,21.88
2022-08-04T04:34:56.505Z,21.90
2022-08-04T04:35:56.498Z,21.96
2022-08-04T04:36:56.483Z,21.85
2022-08-04T04:37:56.477Z,21.99
2022-08-04T04:38:56.561Z,22.04
2022-08-04T04:39:56.504Z,22.03
2022-08-04T04:40:56.430Z,22.13
2022-08-04T04:41:56.440Z,22.08
2022-08-04T04:42:56.424Z,22.23
2022-08-04T04:43:56.420Z,22.23
2022-08-04T04:44:56.410Z,22.20
2022-08-04T04:45:56.447Z,22.36
2022-08-04T04:46:56.366Z,22.32
2022-08-04T04:48:07.632Z,22.43
2022-08-04T04:48:57.371Z,22.47
2022-08-04T04:49:56.335Z,22.43
2022-08-04T04:50:56.330Z,22.44
2022-08-04T04:51:56.319Z,22.45
2022-08-04T04:52:56.301Z,22.40
2022-08-04T04:54:00.453Z,22.44
2022-08-04T04:54:56.284Z,22.51
2022-08-04T04:55:56.263Z,22.51
2022-08-04T04:56:56.259Z,22.56
2022-08-04T04:57:56.255Z,22.63
2022-08-04T04:58:56.247Z,22.70
2022-08-04T04:59:56.228Z,22.62
2022-08-04T05:00:56.209Z,22.77
2022-08-04T05:01:56.201Z,22.72
2022-08-04T05:03:00.369Z,22.68
2022-08-04T05:03:56.187Z,22.73
2022-08-04T05:04:56.169Z,22.73
2022-08-04T05:05:56.164Z,22.72
2022-08-04T05:06:56.141Z,22.68
2022-08-04T05:07:56.137Z,22.69
2022-08-04T05:08:56.141Z,22.78
2022-08-04T05:09:56.108Z,22.84
2022-08-04T05:10:56.102Z,22.83
2022-08-04T05:11:56.134Z,22.80
2022-08-04T05:14:32.022Z,22.96
2022-08-04T05:14:36.356Z,22.91
2022-08-04T05:14:57.047Z,22.95
2022-08-04T05:15:56.044Z,22.98
2022-08-04T05:16:56.027Z,23.00
2022-08-04T05:17:56.061Z,23.05
2022-08-04T05:18:56.011Z,23.06
2022-08-04T05:19:56.010Z,23.03
2022-08-04T05:20:56.004Z,23.06
2022-08-04T05:21:55.965Z,23.06
2022-08-04T05:22:55.966Z,23.18
2022-08-04T05:23:55.948Z,23.17
2022-08-04T05:24:56.030Z,23.10
2022-08-04T05:25:59.832Z,23.21
2022-08-04T05:26:55.912Z,23.20
2022-08-04T05:27:55.938Z,23.15
2022-08-04T05:28:55.890Z,23.09
2022-08-04T05:29:55.893Z,23.20
2022-08-04T05:30:55.897Z,23.22
2022-08-04T05:31:55.874Z,23.21
2022-08-04T05:32:57.387Z,23.18
2022-08-04T05:33:55.846Z,23.31
2022-08-04T05:34:55.835Z,23.33
2022-08-04T05:36:20.579Z,23.33
2022-08-04T05:36:56.861Z,23.37
2022-08-04T05:38:01.203Z,23.34
2022-08-04T05:38:56.795Z,23.51
2022-08-04T05:39:55.786Z,23.47
2022-08-04T05:40:55.754Z,23.48
2022-08-04T05:42:04.650Z,23.52
2022-08-04T05:42:56.735Z,23.52
2022-08-04T05:43:55.719Z,23.56
2022-08-04T05:44:55.794Z,23.51
2022-08-04T05:45:55.704Z,23.55
2022-08-04T05:46:55.691Z,23.52
2022-08-04T05:47:55.673Z,23.52
2022-08-04T05:48:55.657Z,23.58
2022-08-04T05:50:02.081Z,23.61
2022-08-04T05:51:00.777Z,23.63
2022-08-04T05:51:55.628Z,23.68
2022-08-04T05:52:59.901Z,23.76
2022-08-04T05:53:56.613Z,23.77
2022-08-04T05:54:55.614Z,23.89
2022-08-04T05:55:58.447Z,23.86
2022-08-04T05:56:55.605Z,23.88
2022-08-04T05:57:55.835Z,23.93
2022-08-04T05:58:55.547Z,23.92
2022-08-04T05:59:55.565Z,23.95
2022-08-04T06:00:55.521Z,23.95
2022-08-04T06:01:57.257Z,23.95
2022-08-04T06:02:55.556Z,23.92
2022-08-04T06:03:55.495Z,23.92
2022-08-04T06:04:55.492Z,23.98
2022-08-04T06:05:55.474Z,24.00
2022-08-04T06:06:55.467Z,24.05
2022-08-04T06:08:07.736Z,24.03
2022-08-04T06:08:56.451Z,24.07
2022-08-04T06:09:55.453Z,24.10
2022-08-04T06:10:55.420Z,24.15
2022-08-04T06:12:01.937Z,24.29
2022-08-04T06:12:56.445Z,24.40
2022-08-04T06:13:55.388Z,24.37
2022-08-04T06:14:59.704Z,24.48
2022-08-04T06:15:55.352Z,24.50
2022-08-04T06:16:55.344Z,24.62
2022-08-04T06:19:59.163Z,24.54
2022-08-04T06:20:00.625Z,24.60
2022-08-04T06:20:17.886Z,24.66
2022-08-04T06:20:56.305Z,24.66
2022-08-04T06:21:55.294Z,24.67
2022-08-04T06:22:55.304Z,24.67
2022-08-04T06:24:02.350Z,24.67
2022-08-04T06:24:56.278Z,24.63
2022-08-04T06:25:55.252Z,24.60
2022-08-04T06:26:55.232Z,24.66
2022-08-04T06:27:55.221Z,24.62
2022-08-04T06:28:55.207Z,24.69
2022-08-04T06:29:55.233Z,24.69
2022-08-04T06:30:55.202Z,24.76
2022-08-04T06:32:27.107Z,24.76
2022-08-04T06:33:03.947Z,24.82
2022-08-04T06:33:56.158Z,24.76
2022-08-04T06:34:55.148Z,24.89
2022-08-04T06:35:55.158Z,24.83
2022-08-04T06:36:55.186Z,24.98
2022-08-04T06:38:00.397Z,25.01
2022-08-04T06:38:58.819Z,25.06
2022-08-04T06:39:55.087Z,25.04
2022-08-04T06:40:55.087Z,25.13
2022-08-04T06:42:16.953Z,25.15
2022-08-04T06:42:56.064Z,25.15
2022-08-04T06:43:55.047Z,25.14
2022-08-04T06:44:55.032Z,25.14
2022-08-04T06:45:55.135Z,25.10
2022-08-04T06:46:55.009Z,25.14
2022-08-04T06:47:55.023Z,25.18
2022-08-04T06:48:54.985Z,25.03
2022-08-04T06:51:25.532Z,25.18
2022-08-04T06:51:26.621Z,25.15
2022-08-04T06:51:55.978Z,25.13
2022-08-04T06:52:54.947Z,25.15
2022-08-04T06:53:54.944Z,25.15
2022-08-04T06:54:54.916Z,25.10
2022-08-04T06:55:55.007Z,25.07
2022-08-04T06:56:54.900Z,25.01
2022-08-04T06:57:58.385Z,25.08
2022-08-04T06:58:55.879Z,25.14
2022-08-04T06:59:54.862Z,25.19
2022-08-04T07:00:54.870Z,25.22
2022-08-04T07:01:54.886Z,25.29
2022-08-04T07:02:54.876Z,25.28
2022-08-04T07:03:54.822Z,25.29
2022-08-04T07:04:54.817Z,25.38
2022-08-04T07:05:54.809Z,25.35
2022-08-04T07:06:54.791Z,25.33
2022-08-04T07:07:58.219Z,25.30
2022-08-04T07:08:54.765Z,25.30
2022-08-04T07:09:54.762Z,25.48
2022-08-04T07:10:54.753Z,25.44
2022-08-04T07:11:54.772Z,25.48
2022-08-04T07:12:54.728Z,25.44
2022-08-04T07:13:54.706Z,25.55
2022-08-04T07:14:54.708Z,25.51
2022-08-04T07:15:54.711Z,25.59
2022-08-04T07:16:54.674Z,25.59
2022-08-04T07:17:54.664Z,25.59
2022-08-04T07:18:54.719Z,25.70
2022-08-04T07:19:54.633Z,25.62
2022-08-04T07:20:54.649Z,25.74
2022-08-04T07:22:18.879Z,25.77
2022-08-04T07:22:55.618Z,25.75
2022-08-04T07:23:54.591Z,25.75
2022-08-04T07:24:54.588Z,25.87
2022-08-04T07:25:59.422Z,25.88
2022-08-04T07:26:55.575Z,25.96
2022-08-04T07:27:54.564Z,26.02
2022-08-04T07:28:54.562Z,26.06
2022-08-04T07:29:54.523Z,26.18
2022-08-04T07:30:54.553Z,26.20
2022-08-04T07:31:54.637Z,26.34
2022-08-04T07:32:54.495Z,26.41
2022-08-04T07:34:21.334Z,26.67
2022-08-04T07:34:55.541Z,26.72
2022-08-04T07:36:05.928Z,26.80
2022-08-04T07:36:56.093Z,26.89
2022-08-04T07:37:54.441Z,26.97
2022-08-04T07:38:54.556Z,26.99
2022-08-04T07:39:54.464Z,27.04
2022-08-04T07:40:54.420Z,27.14
2022-08-04T07:41:54.401Z,27.15
2022-08-04T07:42:54.385Z,27.11
2022-08-04T07:43:54.429Z,27.18
2022-08-04T07:44:54.371Z,27.27
2022-08-04T07:45:54.371Z,27.51
2022-08-04T07:46:54.345Z,27.42
2022-08-04T07:48:05.296Z,27.54
2022-08-04T07:48:55.311Z,27.65
2022-08-04T07:49:57.714Z,27.61
2022-08-04T07:50:54.314Z,27.61
2022-08-04T07:51:54.292Z,27.68
2022-08-04T07:53:15.364Z,27.67
2022-08-04T07:53:56.442Z,27.72
2022-08-04T07:54:54.249Z,27.70
2022-08-04T07:55:54.259Z,27.80
2022-08-04T07:56:54.226Z,27.86
2022-08-04T07:57:54.216Z,27.87
2022-08-04T07:58:54.208Z,27.95
2022-08-04T07:59:54.246Z,27.86
2022-08-04T08:00:54.201Z,27.87
2022-08-04T08:01:54.175Z,27.97
2022-08-04T08:02:54.161Z,27.95
2022-08-04T08:03:54.251Z,27.99
2022-08-04T08:04:54.145Z,28.01
2022-08-04T08:06:17.600Z,27.99
2022-08-04T08:06:55.109Z,28.19
2022-08-04T08:07:54.944Z,28.30
2022-08-04T08:08:54.094Z,28.36
2022-08-04T08:09:54.080Z,28.57
2022-08-04T08:10:54.198Z,28.57
2022-08-04T08:12:36.859Z,28.75
2022-08-04T08:12:55.061Z,28.79
2022-08-04T08:13:54.047Z,28.97
2022-08-04T08:14:54.036Z,29.11
2022-08-04T08:15:54.035Z,29.31
2022-08-04T08:16:54.005Z,29.42
2022-08-04T08:17:57.819Z,29.51
2022-08-04T08:18:54.999Z,29.76
2022-08-04T08:19:53.971Z,29.91
2022-08-04T08:20:53.990Z,30.09
2022-08-04T08:21:59.162Z,30.31
2022-08-04T08:22:54.938Z,30.56
2022-08-04T08:23:54.054Z,30.96
2022-08-04T08:24:53.917Z,31.36
2022-08-04T08:25:53.935Z,31.74
2022-08-04T08:26:53.889Z,32.23
2022-08-04T08:27:55.678Z,32.77
2022-08-04T08:28:53.876Z,33.16
2022-08-04T08:29:53.857Z,33.59
2022-08-04T08:30:53.873Z,33.78
2022-08-04T08:31:56.164Z,34.08
2022-08-04T08:32:53.833Z,34.49
2022-08-04T08:33:53.886Z,34.75
2022-08-04T08:34:53.818Z,34.84
2022-08-04T08:35:54.921Z,35.05
2022-08-04T08:36:53.824Z,35.11
2022-08-04T08:37:53.775Z,35.23
2022-08-04T08:38:53.806Z,35.24
2022-08-04T08:39:53.754Z,35.36
2022-08-04T08:40:53.758Z,35.34
2022-08-04T08:41:53.736Z,35.36
2022-08-04T08:42:53.717Z,35.43
2022-08-04T08:44:05.152Z,35.49
2022-08-04T08:44:57.786Z,35.65
2022-08-04T08:45:53.702Z,35.79
2022-08-04T08:46:53.689Z,35.95
2022-08-04T08:48:05.146Z,36.11
2022-08-04T08:48:54.652Z,36.34
2022-08-04T08:50:02.439Z,36.55
2022-08-04T08:50:54.645Z,36.83
2022-08-04T08:51:53.644Z,37.08
2022-08-04T08:52:56.186Z,37.15
2022-08-04T08:53:54.590Z,37.36
2022-08-04T08:54:53.588Z,37.46
2022-08-04T08:55:53.652Z,37.54
2022-08-04T08:56:53.565Z,37.64
2022-08-04T08:58:00.175Z,37.72
2022-08-04T08:58:54.580Z,37.83
2022-08-04T08:59:53.547Z,37.87
2022-08-04T09:00:53.534Z,37.98
2022-08-04T09:01:53.641Z,38.09
2022-08-04T09:03:04.126Z,38.25
2022-08-04T09:03:54.575Z,38.43
2022-08-04T09:04:53.497Z,38.56
2022-08-04T09:05:53.478Z,38.65
2022-08-04T09:06:53.474Z,38.73
2022-08-04T09:07:53.461Z,38.96
2022-08-04T09:08:53.438Z,39.18
2022-08-04T09:09:53.506Z,39.43
2022-08-04T09:10:53.461Z,39.65
2022-08-04T09:11:53.400Z,39.90
2022-08-04T09:12:53.399Z,39.95
2022-08-04T09:13:53.384Z,40.13
2022-08-04T09:14:53.374Z,40.29
2022-08-04T09:15:54.367Z,40.45
2022-08-04T09:16:53.367Z,40.57
2022-08-04T09:17:53.336Z,40.74
2022-08-04T09:18:53.328Z,40.81
2022-08-04T09:19:53.324Z,40.81
2022-08-04T09:20:53.338Z,40.93
2022-08-04T09:21:53.306Z,41.04
2022-08-04T09:22:53.307Z,41.17
2022-08-04T09:23:53.274Z,41.31
2022-08-04T09:24:53.268Z,41.39
2022-08-04T09:25:53.261Z,41.47
2022-08-04T09:26:59.737Z,41.65
2022-08-04T09:27:54.241Z,41.75
2022-08-04T09:28:54.686Z,41.92
2022-08-04T09:29:53.219Z,42.04
2022-08-04T09:30:53.207Z,42.22
2022-08-04T09:32:06.951Z,42.38
2022-08-04T09:32:54.188Z,42.20
2022-08-04T09:33:53.181Z,42.22
2022-08-04T09:35:03.449Z,42.36
2022-08-04T09:35:54.179Z,42.46
2022-08-04T09:36:53.171Z,42.59
2022-08-04T09:37:53.150Z,42.76
2022-08-04T09:38:53.288Z,42.89
2022-08-04T09:39:53.140Z,42.89
2022-08-04T09:40:56.878Z,42.98
2022-08-04T09:41:53.128Z,43.09
2022-08-04T09:42:53.122Z,43.25
2022-08-04T09:44:43.218Z,43.41
2022-08-04T09:44:57.633Z,43.63
2022-08-04T09:45:54.110Z,43.63
2022-08-04T09:46:53.073Z,43.80
2022-08-04T09:47:53.051Z,43.56
2022-08-04T09:48:53.047Z,43.74
2022-08-04T09:49:53.035Z,43.77
2022-08-04T09:50:53.071Z,43.78
2022-08-04T09:51:57.261Z,44.11
2022-08-04T09:52:54.047Z,44.16
2022-08-04T09:53:53.000Z,44.11
2022-08-04T09:54:52.995Z,44.14
2022-08-04T09:55:53.545Z,44.24
2022-08-04T09:56:52.987Z,44.33
2022-08-04T09:57:52.957Z,44.43
2022-08-04T09:58:52.984Z,44.46
2022-08-04T09:59:52.940Z,44.45
2022-08-04T10:00:52.945Z,44.27
2022-08-04T10:01:59.014Z,43.84
2022-08-04T10:02:54.030Z,43.82
2022-08-04T10:03:52.901Z,43.86
2022-08-04T10:04:52.955Z,43.73
2022-08-04T10:05:52.889Z,43.75
2022-08-04T10:06:52.885Z,43.44
2022-08-04T10:07:59.644Z,43.16
2022-08-04T10:08:56.979Z,43.08
2022-08-04T10:09:52.852Z,43.04
2022-08-04T10:10:52.853Z,43.05
2022-08-04T10:11:55.359Z,43.07
2022-08-04T10:12:52.819Z,43.04
2022-08-04T10:13:52.830Z,43.13
2022-08-04T10:14:52.811Z,43.22
2022-08-04T10:15:52.797Z,43.43
2022-08-04T10:16:52.836Z,43.49
2022-08-04T10:17:52.876Z,43.36
2022-08-04T10:18:52.776Z,43.28
2022-08-04T10:19:52.759Z,43.37
2022-08-04T10:20:57.385Z,43.46
2022-08-04T10:21:59.691Z,43.54
2022-08-04T10:23:10.562Z,43.62
2022-08-04T10:23:56.076Z,43.66
2022-08-04T10:24:53.714Z,43.59
2022-08-04T10:26:06.195Z,43.39
2022-08-04T10:26:57.357Z,43.34
2022-08-04T10:27:52.726Z,43.40
2022-08-04T10:28:52.675Z,43.44
2022-08-04T10:29:52.665Z,43.62
2022-08-04T10:30:52.653Z,43.63
2022-08-04T10:31:52.666Z,43.77
2022-08-04T10:32:52.638Z,43.86
2022-08-04T10:33:52.643Z,43.99
2022-08-04T10:34:52.613Z,43.92
2022-08-04T10:35:52.611Z,43.71
2022-08-04T10:36:52.615Z,43.52
2022-08-04T10:37:54.628Z,43.40
2022-08-04T10:38:53.665Z,43.24
2022-08-04T10:39:52.679Z,43.09
2022-08-04T10:40:53.571Z,42.87
2022-08-04T10:41:52.562Z,42.75
2022-08-04T10:42:52.538Z,42.26
2022-08-04T10:43:52.529Z,41.78
2022-08-04T10:44:57.305Z,41.05
2022-08-04T10:45:56.074Z,40.42
2022-08-04T10:46:52.525Z,40.13
2022-08-04T10:47:53.502Z,39.76
2022-08-04T10:48:52.479Z,39.23
2022-08-04T10:49:52.469Z,38.98
2022-08-04T10:50:56.889Z,38.77
2022-08-04T10:51:57.263Z,38.61
2022-08-04T10:52:53.442Z,38.46
2022-08-04T10:53:52.433Z,38.43
2022-08-04T10:54:52.429Z,38.25
2022-08-04T10:56:06.297Z,38.17
2022-08-04T10:56:56.791Z,38.05
2022-08-04T10:57:52.437Z,38.08
2022-08-04T10:58:52.393Z,38.03
2022-08-04T10:59:52.384Z,37.91
2022-08-04T11:00:53.357Z,37.94
2022-08-04T11:02:03.301Z,37.90
2022-08-04T11:02:53.388Z,37.96
2022-08-04T11:03:52.325Z,37.88
2022-08-04T11:04:52.350Z,38.10
2022-08-04T11:05:52.307Z,38.18
2022-08-04T11:06:52.308Z,38.12
2022-08-04T11:07:52.290Z,38.08
2022-08-04T11:08:52.276Z,38.10
2022-08-04T11:09:52.263Z,38.03
2022-08-04T11:10:52.281Z,37.96
2022-08-04T11:12:01.448Z,38.03
2022-08-04T11:12:53.234Z,38.03
2022-08-04T11:13:52.224Z,38.08
2022-08-04T11:14:52.223Z,38.06
2022-08-04T11:15:52.200Z,37.96
2022-08-04T11:16:52.211Z,37.98
2022-08-04T11:17:52.232Z,37.99
2022-08-04T11:18:52.170Z,37.91
2022-08-04T11:19:54.508Z,37.91
2022-08-04T11:20:53.156Z,37.91
2022-08-04T11:21:52.165Z,38.03
2022-08-04T11:22:52.147Z,37.98
2022-08-04T11:23:52.132Z,37.87
2022-08-04T11:24:52.172Z,37.88
2022-08-04T11:25:52.467Z,37.83
2022-08-04T11:26:52.106Z,37.84
2022-08-04T11:27:52.081Z,37.80
2022-08-04T11:29:03.309Z,37.74
2022-08-04T11:29:53.073Z,37.74
2022-08-04T11:30:52.065Z,37.66
2022-08-04T11:31:52.392Z,37.66
2022-08-04T11:32:52.030Z,37.68
2022-08-04T11:33:52.017Z,37.64
2022-08-04T11:34:52.851Z,37.57
2022-08-04T11:35:51.997Z,37.53
2022-08-04T11:36:52.006Z,37.30
2022-08-04T11:37:52.051Z,37.29
2022-08-04T11:38:52.486Z,37.29
2022-08-04T11:39:51.965Z,37.29
2022-08-04T11:41:02.767Z,37.30
2022-08-04T11:41:52.945Z,37.30
2022-08-04T11:42:51.927Z,37.45
2022-08-04T11:44:00.692Z,37.46
2022-08-04T11:44:52.898Z,37.43
2022-08-04T11:45:51.898Z,37.45
2022-08-04T11:46:51.899Z,37.51
2022-08-04T11:47:51.878Z,37.46
2022-08-04T11:48:51.873Z,37.42
2022-08-04T11:49:57.341Z,37.59
2022-08-04T11:50:54.007Z,37.68
2022-08-04T11:51:51.845Z,37.65
2022-08-04T11:52:51.820Z,37.46
2022-08-04T11:53:51.814Z,37.48
2022-08-04T11:54:52.825Z,37.42
2022-08-04T11:56:08.279Z,37.30
2022-08-04T11:56:52.835Z,37.26
2022-08-04T11:57:54.310Z,37.26
2022-08-04T11:58:51.758Z,37.22
2022-08-04T11:59:51.747Z,37.17
2022-08-04T12:00:51.741Z,37.11
2022-08-04T12:01:51.861Z,37.17
2022-08-04T12:02:51.754Z,37.12
2022-08-04T12:03:59.727Z,37.02
2022-08-04T12:04:52.698Z,37.05
2022-08-04T12:05:51.683Z,37.02
2022-08-04T12:07:04.570Z,36.97
2022-08-04T12:07:52.659Z,36.95
2022-08-04T12:08:51.721Z,36.96
2022-08-04T12:09:51.656Z,36.97
2022-08-04T12:10:51.637Z,37.05
2022-08-04T12:11:51.654Z,36.99
2022-08-04T12:12:51.617Z,36.92
2022-08-04T12:13:51.607Z,36.89
2022-08-04T12:14:51.630Z,37.04
2022-08-04T12:15:51.600Z,37.07
2022-08-04T12:16:51.589Z,36.96
2022-08-04T12:17:52.961Z,37.00
2022-08-04T12:18:52.507Z,37.05
2022-08-04T12:20:05.109Z,36.99
2022-08-04T12:20:52.583Z,37.15
2022-08-04T12:21:55.642Z,37.12
2022-08-04T12:22:52.542Z,37.22
2022-08-04T12:24:00.617Z,37.34
2022-08-04T12:24:52.479Z,37.30
2022-08-04T12:25:51.488Z,37.34
2022-08-04T12:26:51.522Z,37.48
2022-08-04T12:27:51.456Z,37.49
2022-08-04T12:29:09.605Z,37.45
2022-08-04T12:30:53.981Z,37.45
2022-08-04T12:31:00.535Z,37.51
2022-08-04T12:31:52.432Z,37.48
2022-08-04T12:32:53.802Z,37.59
2022-08-04T12:34:04.520Z,37.65
2022-08-04T12:34:52.377Z,37.62
2022-08-04T12:36:04.344Z,37.69
2022-08-04T12:36:52.378Z,37.77
2022-08-04T12:37:51.358Z,37.66
2022-08-04T12:38:51.478Z,37.66
2022-08-04T12:40:27.434Z,37.71
2022-08-04T12:40:52.320Z,37.69
2022-08-04T12:41:51.319Z,37.72
2022-08-04T12:42:56.159Z,37.68
2022-08-04T12:43:52.284Z,37.64
2022-08-04T12:44:51.321Z,37.65
2022-08-04T12:45:51.271Z,37.68
2022-08-04T12:46:51.274Z,37.65
2022-08-04T12:47:51.258Z,37.66
2022-08-04T12:48:51.241Z,37.62
2022-08-04T12:50:01.072Z,37.68
2022-08-04T12:50:52.254Z,37.69
2022-08-04T12:52:08.438Z,37.61
2022-08-04T12:53:02.047Z,37.62